Time;durP1;ratioP1;P1;durP2;ratioP2;P2;SDS_P1;SDS_P2;PMS_P1;PMS_P2;Temp;Humidity;BMP_temperature;BMP_pressure;BME280_temperature;BME280_humidity;BME280_pressure;Samples;Min_cycle;Max_cycle;Signal;HPM_P1;HPM_P2
2023/03/02 00:00:55;;;;;;;9.00;5.13;;;;;;;5.82;66.53;95292.88;5110834;28;20020;-84
2023/03/02 00:03:20;;;;;;;8.52;4.90;;;;;;;5.86;67.99;95294.41;5107509;28;20019;-87
2023/03/02 00:05:48;;;;;;;7.55;4.35;;;;;;;5.82;67.08;95279.22;5104885;28;20420;-86
2023/03/02 00:08:17;;;;;;;8.93;4.80;;;;;;;5.80;68.56;95276.13;5087950;28;20087;-87
2023/03/02 00:10:43;;;;;;;7.97;4.25;;;;;;;5.91;67.96;95284.22;5104557;28;20441;-86
2023/03/02 00:13:10;;;;;;;9.80;4.55;;;;;;;5.84;68.36;95266.72;5070684;28;20077;-85
2023/03/02 00:15:35;;;;;;;6.45;3.95;;;;;;;5.91;69.26;95273.31;5104410;28;20081;-88
2023/03/02 00:18:00;;;;;;;5.18;3.75;;;;;;;5.86;68.23;95269.84;5089488;28;20023;-85
2023/03/02 00:20:26;;;;;;;4.50;3.53;;;;;;;5.88;69.24;95271.41;5107948;27;20460;-87
2023/03/02 00:22:51;;;;;;;5.38;3.30;;;;;;;5.75;67.87;95268.34;5088220;28;20042;-87
2023/03/02 00:25:17;;;;;;;5.72;3.42;;;;;;;5.79;68.28;95260.91;5104910;28;20066;-88
2023/03/02 00:27:43;;;;;;;5.18;3.30;;;;;;;5.73;67.60;95257.03;5104530;28;20035;-86
2023/03/02 00:30:09;;;;;;;5.18;3.78;;;;;;;5.77;68.20;95258.59;5104503;28;20386;-87
2023/03/02 00:32:35;;;;;;;4.28;2.92;;;;;;;5.71;67.59;95264.88;5104424;28;20023;-86
2023/03/02 00:35:00;;;;;;;4.03;2.88;;;;;;;5.73;68.28;95259.78;5104297;28;20413;-86
2023/03/02 00:37:26;;;;;;;5.05;3.05;;;;;;;5.71;67.96;95262.13;5104472;28;20485;-86
2023/03/02 00:39:52;;;;;;;4.03;2.80;;;;;;;5.68;68.00;95260.19;5105056;28;20058;-86
2023/03/02 00:42:20;;;;;;;5.30;3.22;;;;;;;5.69;69.75;95253.59;5103804;28;20610;-86
2023/03/02 00:44:45;;;;;;;4.25;2.72;;;;;;;5.62;67.85;95254.41;5108132;28;20047;-86
2023/03/02 00:47:10;;;;;;;4.28;2.92;;;;;;;5.68;69.62;95246.53;5104527;28;20077;-87
2023/03/02 00:49:36;;;;;;;4.65;3.17;;;;;;;5.53;67.71;95234.94;5105524;28;20429;-85
2023/03/02 00:52:03;;;;;;;5.03;2.80;;;;;;;5.65;68.32;95247.34;5113382;28;20053;-84
2023/03/02 00:54:28;;;;;;;4.22;3.08;;;;;;;5.65;67.26;95236.44;5095777;28;20428;-87
2023/03/02 00:56:54;;;;;;;4.80;3.42;;;;;;;5.64;68.58;95238.41;5105941;28;20028;-86
2023/03/02 00:59:29;;;;;;;4.65;2.97;;;;;;;5.62;66.55;95231.78;5104429;28;20035;-87
2023/03/02 01:01:56;;;;;;;4.00;2.90;;;;;;;5.67;67.93;95220.44;5104424;28;20034;-86
2023/03/02 01:04:33;;;;;;;5.25;2.78;;;;;;;5.62;66.98;95223.59;5103838;28;20108;-86
2023/03/02 01:07:03;;;;;;;3.67;2.65;;;;;;;5.61;67.66;95217.38;5103840;28;20039;-86
2023/03/02 01:09:28;;;;;;;3.08;2.45;;;;;;;5.62;67.43;95210.75;5086741;28;20028;-87
2023/03/02 01:11:55;;;;;;;3.63;2.63;;;;;;;5.53;67.82;95213.91;5103737;28;20035;-86
2023/03/02 01:14:21;;;;;;;2.33;1.90;;;;;;;5.55;69.09;95216.22;5105584;28;20120;-86
2023/03/02 01:16:46;;;;;;;3.13;2.00;;;;;;;5.44;68.14;95213.53;5086965;28;20028;-87
2023/03/02 01:19:13;;;;;;;3.58;2.30;;;;;;;5.40;68.56;95207.34;5104069;28;20030;-86
2023/03/02 01:21:39;;;;;;;3.83;2.05;;;;;;;5.35;67.74;95210.50;5087108;28;20513;-85
2023/03/02 01:24:04;;;;;;;2.90;1.88;;;;;;;5.45;69.42;95201.50;5106426;28;20046;-85
2023/03/02 01:26:31;;;;;;;3.47;2.38;;;;;;;5.37;67.41;95210.88;5106207;28;20402;-86
2023/03/02 01:28:56;;;;;;;3.10;2.05;;;;;;;5.40;68.87;95201.13;5104262;28;20063;-85
2023/03/02 01:31:22;;;;;;;3.58;2.00;;;;;;;5.30;67.66;95219.84;5103600;28;20221;-86
2023/03/02 01:33:48;;;;;;;2.63;1.80;;;;;;;5.27;69.51;95211.69;5104931;28;20028;-85
2023/03/02 01:36:13;;;;;;;3.40;2.05;;;;;;;5.29;69.20;95206.63;5107862;28;20038;-86
2023/03/02 01:38:39;;;;;;;3.55;1.98;;;;;;;5.23;69.39;95203.53;5107715;28;20104;-86
2023/03/02 01:41:04;;;;;;;3.13;2.00;;;;;;;5.30;70.63;95205.44;5108058;28;20044;-86
2023/03/02 01:43:30;;;;;;;2.97;1.90;;;;;;;5.17;69.70;95202.38;5108630;28;20032;-86
2023/03/02 01:46:09;;;;;;;3.88;1.95;;;;;;;5.21;70.18;95213.25;5108430;28;20372;-86
2023/03/02 01:49:04;;;;;;;3.15;1.88;;;;;;;5.04;69.93;95203.97;5108908;28;20031;-87
2023/03/02 01:51:31;;;;;;;3.03;1.92;;;;;;;5.16;71.87;95200.03;5115606;28;20023;-86
2023/03/02 01:54:04;;;;;;;4.30;2.45;;;;;;;5.01;70.07;95202.06;5106686;28;20028;-85
2023/03/02 01:56:33;;;;;;;3.67;1.83;;;;;;;5.05;70.62;95191.94;5107235;28;20067;-86
2023/03/02 01:59:02;;;;;;;2.92;1.80;;;;;;;5.01;70.16;95189.19;5106561;28;20771;-85
2023/03/02 02:01:29;;;;;;;2.30;1.67;;;;;;;5.12;70.59;95194.63;5106640;28;20034;-84
2023/03/02 02:03:54;;;;;;;3.03;1.80;;;;;;;5.12;69.35;95194.63;5106508;28;20023;-86
2023/03/02 02:06:42;;;;;;;4.00;2.17;;;;;;;5.20;70.33;95192.63;5106366;28;20038;-85
2023/03/02 02:09:10;;;;;;;4.15;1.90;;;;;;;5.12;68.89;95189.16;5106300;28;20651;-86
2023/03/02 02:11:35;;;;;;;3.38;2.15;;;;;;;5.15;70.04;95188.38;5107257;28;20477;-86
2023/03/02 02:14:01;;;;;;;2.85;2.03;;;;;;;5.10;68.58;95185.25;5106399;28;20024;-86
2023/03/02 02:16:28;;;;;;;3.85;2.28;;;;;;;5.13;70.24;95184.50;5089568;28;20058;-85
2023/03/02 02:18:54;;;;;;;3.95;2.42;;;;;;;5.20;69.22;95185.22;5106182;28;20494;-86
2023/03/02 02:21:20;;;;;;;3.80;2.22;;;;;;;5.14;70.04;95191.50;5106836;28;20038;-86
2023/03/02 02:23:54;;;;;;;3.60;2.60;;;;;;;5.17;71.09;95185.25;5106466;28;20027;-86
2023/03/02 02:26:27;;;;;;;3.15;1.83;;;;;;;5.12;69.95;95194.63;5107936;28;20020;-87
2023/03/02 02:28:58;;;;;;;2.45;1.63;;;;;;;5.16;72.09;95191.88;5106583;28;20394;-86
2023/03/02 02:31:37;;;;;;;3.38;2.00;;;;;;;5.09;70.19;95198.13;5108335;28;20099;-85
2023/03/02 02:34:33;;;;;;;3.38;2.40;;;;;;;5.14;71.18;95191.50;5089557;28;20024;-86
2023/03/02 02:37:04;;;;;;;3.05;1.77;;;;;;;5.10;70.11;95198.91;5102760;28;20484;-86
2023/03/02 02:39:33;;;;;;;1.98;1.77;;;;;;;5.18;71.62;95192.25;5109333;28;20053;-87
2023/03/02 02:42:02;;;;;;;2.88;1.90;;;;;;;5.05;69.88;95181.81;5112570;28;20059;-87
2023/03/02 02:44:28;;;;;;;2.58;1.80;;;;;;;5.03;71.10;95192.28;5105704;28;20103;-86
2023/03/02 02:46:54;;;;;;;3.22;1.85;;;;;;;5.01;69.72;95193.88;5106199;28;20028;-86
2023/03/02 02:49:25;;;;;;;2.60;1.50;;;;;;;5.13;70.11;95188.00;5088860;28;20039;-86
2023/03/02 02:51:51;;;;;;;3.10;1.60;;;;;;;5.01;69.34;95194.66;5106199;28;20062;-87
2023/03/02 02:54:17;;;;;;;4.43;1.90;;;;;;;5.10;69.67;95188.75;5090722;28;20036;-87
2023/03/02 02:56:43;;;;;;;2.78;1.63;;;;;;;5.03;68.37;95180.63;5091346;28;20440;-86
2023/03/02 02:59:33;;;;;;;2.30;1.63;;;;;;;5.07;69.67;95178.66;5106135;28;20076;-86
2023/03/02 03:02:00;;;;;;;2.25;1.38;;;;;;;5.04;69.27;95182.94;5101139;28;20074;-87
2023/03/02 03:04:28;;;;;;;2.35;1.80;;;;;;;5.06;69.62;95177.13;5088970;28;20484;-85
2023/03/02 03:06:53;;;;;;;2.90;1.58;;;;;;;4.96;68.24;95175.22;5108166;28;20131;-85
2023/03/02 03:09:19;;;;;;;3.85;1.55;;;;;;;5.00;69.38;95176.75;5112745;28;20454;-85
2023/03/02 03:11:48;;;;;;;1.80;1.40;;;;;;;5.04;71.38;95171.28;5113081;28;20415;-87
2023/03/02 03:14:17;;;;;;;2.40;1.50;;;;;;;4.98;68.81;95179.06;5088766;28;20035;-86
2023/03/02 03:16:44;;;;;;;3.00;1.65;;;;;;;5.01;70.86;95172.84;5089337;28;20638;-85
2023/03/02 03:19:17;;;;;;;3.28;1.60;;;;;;;5.00;69.02;95178.72;5105728;28;20031;-84
2023/03/02 03:21:42;;;;;;;11.55;2.05;;;;;;;5.07;69.32;95170.50;5105623;28;20031;-86
2023/03/02 03:24:08;;;;;;;2.28;1.52;;;;;;;4.99;68.46;95175.22;5108150;28;20485;-86
2023/03/02 03:26:33;;;;;;;5.03;1.38;;;;;;;5.02;69.32;95171.69;5105370;28;20027;-85
2023/03/02 03:28:59;;;;;;;2.88;1.23;;;;;;;5.04;68.30;95174.78;5104932;28;20035;-86
2023/03/02 03:31:26;;;;;;;2.08;1.30;;;;;;;5.02;69.08;95168.19;5106414;28;20059;-87
2023/03/02 03:33:53;;;;;;;3.25;1.20;;;;;;;5.00;68.67;95182.22;5106649;28;20088;-85
2023/03/02 03:36:18;;;;;;;2.72;1.90;;;;;;;5.08;69.02;95177.50;5105051;28;20100;-85
2023/03/02 03:38:44;;;;;;;2.45;1.42;;;;;;;5.13;69.41;95171.63;5105163;28;20067;-87
2023/03/02 03:41:09;;;;;;;1.77;1.40;;;;;;;5.18;68.58;95178.63;5104416;28;20043;-87
2023/03/02 03:43:35;;;;;;;3.40;1.30;;;;;;;5.19;71.03;95169.28;5104977;28;20384;-86
2023/03/02 03:46:00;;;;;;;2.03;1.10;;;;;;;5.06;68.68;95172.44;5088587;28;20027;-86
2023/03/02 03:48:25;;;;;;;1.77;1.33;;;;;;;5.13;69.25;95168.13;5107959;28;20038;-86
2023/03/02 03:50:51;;;;;;;1.55;1.17;;;;;;;5.03;68.17;95175.94;5106478;28;20035;-86
2023/03/02 03:53:16;;;;;;;1.90;1.05;;;;;;;5.12;68.91;95174.75;5088003;28;20177;-86
2023/03/02 03:55:42;;;;;;;2.38;1.38;;;;;;;5.01;67.90;95178.31;5106109;28;20027;-86
2023/03/02 03:58:07;;;;;;;2.42;1.40;;;;;;;5.01;69.41;95174.81;5104863;28;20347;-86
2023/03/02 04:00:33;;;;;;;2.22;1.30;;;;;;;4.97;68.58;95177.53;5096924;28;20054;-86
2023/03/02 04:02:58;;;;;;;2.42;1.27;;;;;;;4.85;69.83;95174.47;5104806;28;20058;-86
2023/03/02 04:05:23;;;;;;;2.00;1.45;;;;;;;4.93;70.17;95176.78;5087307;28;20537;-88
2023/03/02 04:07:49;;;;;;;2.83;1.42;;;;;;;4.90;70.12;95182.22;5104073;28;20515;-87
2023/03/02 04:10:15;;;;;;;2.50;1.63;;;;;;;4.91;70.89;95181.06;5104444;28;20035;-86
2023/03/02 04:12:41;;;;;;;1.48;1.13;;;;;;;4.84;70.12;95176.41;5104450;28;20373;-87
2023/03/02 04:15:08;;;;;;;1.80;1.25;;;;;;;4.88;70.26;95170.97;5104466;28;20031;-86
2023/03/02 04:17:34;;;;;;;1.52;0.95;;;;;;;4.83;69.57;95172.13;5104475;28;20116;-86
2023/03/02 04:19:59;;;;;;;2.67;1.60;;;;;;;4.90;70.78;95177.56;5105772;28;20070;-86
2023/03/02 04:22:25;;;;;;;1.92;1.17;;;;;;;4.94;69.69;95174.84;5105485;28;20032;-85
2023/03/02 04:24:51;;;;;;;1.55;1.00;;;;;;;4.99;70.31;95171.72;5097408;28;20039;-85
2023/03/02 04:27:17;;;;;;;2.25;1.20;;;;;;;5.02;69.66;95168.94;5109905;28;20047;-86
2023/03/02 04:29:43;;;;;;;2.80;1.73;;;;;;;4.96;70.42;95169.75;5104827;28;20585;-87
2023/03/02 04:32:10;;;;;;;2.13;1.50;;;;;;;4.94;70.32;95169.38;5104499;28;20055;-85
2023/03/02 04:34:35;;;;;;;2.63;1.30;;;;;;;4.92;70.45;95171.72;5104154;28;20377;-86
2023/03/02 04:37:01;;;;;;;2.08;1.33;;;;;;;4.98;71.91;95170.13;5087619;28;20049;-86
2023/03/02 04:39:26;;;;;;;3.65;1.73;;;;;;;4.89;70.46;95178.75;5103675;28;20540;-87
2023/03/02 04:41:52;;;;;;;2.90;1.75;;;;;;;4.96;71.24;95175.22;5104035;28;20052;-86
2023/03/02 04:44:19;;;;;;;3.08;1.98;;;;;;;4.93;70.12;95184.16;5104194;28;20035;-86
2023/03/02 04:46:46;;;;;;;2.53;1.67;;;;;;;4.99;71.50;95188.81;5070769;28;20096;-87
2023/03/02 04:49:13;;;;;;;3.78;2.67;;;;;;;4.92;70.11;95193.50;5105636;28;20016;-86
2023/03/02 04:51:40;;;;;;;5.10;3.08;;;;;;;4.92;70.81;95196.22;5087094;28;20038;-87
2023/03/02 04:54:18;;;;;;;5.03;3.10;;;;;;;4.84;70.16;95190.03;5103921;28;20568;-86
2023/03/02 04:56:47;;;;;;;4.05;2.63;;;;;;;4.90;71.00;95190.41;5103674;28;20483;-87
2023/03/02 04:59:14;;;;;;;3.35;2.53;;;;;;;4.84;70.06;95192.75;5105119;28;20031;-86
2023/03/02 05:01:40;;;;;;;3.75;2.78;;;;;;;4.80;71.30;95187.31;5103346;28;20063;-87
2023/03/02 05:04:05;;;;;;;4.93;3.10;;;;;;;4.86;72.91;95193.13;5103752;28;20062;-86
2023/03/02 05:06:31;;;;;;;4.40;2.97;;;;;;;4.80;71.45;95190.03;5108331;28;20028;-86
2023/03/02 05:08:58;;;;;;;3.42;2.60;;;;;;;4.89;73.15;95197.81;5107048;28;20027;-86
2023/03/02 05:11:24;;;;;;;4.13;2.60;;;;;;;4.78;71.41;95191.59;5108379;28;20474;-87
2023/03/02 05:13:51;;;;;;;3.30;2.40;;;;;;;4.74;72.11;95188.88;5090602;28;20112;-88
2023/03/02 05:16:18;;;;;;;4.25;2.60;;;;;;;4.64;71.76;95186.94;5090820;28;20031;-86
2023/03/02 05:18:43;;;;;;;3.92;2.83;;;;;;;4.74;72.39;95197.06;5107291;28;20036;-88
2023/03/02 05:21:09;;;;;;;4.47;2.67;;;;;;;4.77;70.84;95195.50;5107312;28;20035;-87
2023/03/02 05:23:34;;;;;;;3.78;2.50;;;;;;;4.78;71.76;95195.09;5107196;28;20035;-86
2023/03/02 05:26:01;;;;;;;4.32;2.13;;;;;;;4.86;70.49;95200.53;5107439;28;20346;-86
2023/03/02 05:28:27;;;;;;;4.43;2.25;;;;;;;4.87;71.54;95200.13;5107617;28;20031;-88
2023/03/02 05:30:52;;;;;;;3.38;2.22;;;;;;;4.93;71.15;95209.47;5107781;28;20036;-87
2023/03/02 05:33:19;;;;;;;3.85;2.50;;;;;;;4.93;71.27;95206.75;5094015;28;20106;-87
2023/03/02 05:35:45;;;;;;;3.88;2.80;;;;;;;4.95;72.58;95214.53;5097491;28;20464;-87
2023/03/02 05:38:10;;;;;;;3.03;2.40;;;;;;;4.90;70.90;95207.53;5107803;28;20482;-86
2023/03/02 05:40:37;;;;;;;4.70;3.00;;;;;;;5.00;71.33;95208.69;5106801;28;20214;-86
2023/03/02 05:43:02;;;;;;;5.95;3.20;;;;;;;4.87;70.52;95207.53;5106920;28;20473;-88
2023/03/02 05:45:31;;;;;;;3.53;2.88;;;;;;;4.93;70.86;95206.75;5107010;28;20036;-86
2023/03/02 05:47:56;;;;;;;4.40;3.28;;;;;;;4.86;70.37;95209.47;5090478;28;20028;-86
2023/03/02 05:50:22;;;;;;;5.15;3.50;;;;;;;4.89;71.60;95210.66;5107530;28;20043;-88
2023/03/02 05:52:48;;;;;;;4.85;3.45;;;;;;;4.93;70.42;95206.75;5106939;28;20065;-86
2023/03/02 05:55:14;;;;;;;4.78;4.18;;;;;;;4.94;71.34;95199.34;5106893;28;20406;-86
2023/03/02 05:57:40;;;;;;;4.22;3.40;;;;;;;5.09;70.59;95213.69;5089395;28;20505;-85
2023/03/02 06:00:07;;;;;;;4.78;3.88;;;;;;;5.07;70.77;95225.00;5106144;28;20027;-83
2023/03/02 06:02:32;;;;;;;4.30;3.22;;;;;;;4.97;72.20;95215.66;5107324;27;20473;-84
2023/03/02 06:04:57;;;;;;;4.43;3.47;;;;;;;4.90;70.91;95212.19;5106046;28;20039;-84
2023/03/02 06:07:23;;;;;;;5.38;3.85;;;;;;;4.97;71.98;95210.22;5107317;28;20103;-85
2023/03/02 06:09:49;;;;;;;4.35;3.40;;;;;;;4.97;70.58;95223.06;5089901;28;20112;-85
2023/03/02 06:12:16;;;;;;;5.38;3.47;;;;;;;5.10;71.22;95218.75;5113967;28;20028;-83
2023/03/02 06:14:42;;;;;;;3.97;3.20;;;;;;;5.06;70.20;95226.19;5093459;28;20391;-83
2023/03/02 06:17:08;;;;;;;7.50;4.22;;;;;;;5.16;70.68;95228.09;5106309;28;20031;-84
2023/03/02 06:19:34;;;;;;;5.68;4.22;;;;;;;5.20;70.05;95228.84;5106814;28;20023;-82
2023/03/02 06:21:59;;;;;;;5.75;3.53;;;;;;;5.21;70.32;95229.63;5106135;28;20027;-81
2023/03/02 06:24:25;;;;;;;4.25;3.45;;;;;;;5.17;69.27;95224.19;5089805;28;20015;-86
2023/03/02 06:26:52;;;;;;;5.00;3.95;;;;;;;5.13;70.23;95223.41;5113391;28;20036;-86
2023/03/02 06:29:17;;;;;;;8.20;4.70;;;;;;;5.19;71.02;95231.97;5115823;28;20028;-85
2023/03/02 06:31:42;;;;;;;4.82;3.92;;;;;;;5.17;70.03;95237.03;5108316;28;20071;-86
2023/03/02 06:34:08;;;;;;;5.35;4.22;;;;;;;5.32;70.51;95236.56;5107582;28;20511;-85
2023/03/02 06:36:37;;;;;;;5.85;4.10;;;;;;;5.31;69.87;95231.53;5107164;28;20489;-84
2023/03/02 06:39:03;;;;;;;5.05;3.75;;;;;;;5.34;70.47;95241.66;5108130;27;20032;-86
2023/03/02 06:41:32;;;;;;;6.07;4.10;;;;;;;5.25;69.38;95241.28;5106591;28;20047;-87
2023/03/02 06:43:58;;;;;;;7.43;5.25;;;;;;;5.24;70.24;95228.84;5106354;28;20031;-86
2023/03/02 06:46:23;;;;;;;7.60;5.35;;;;;;;5.19;69.66;95230.00;5106344;28;20023;-86
2023/03/02 06:48:49;;;;;;;6.95;5.28;;;;;;;5.27;70.89;95225.31;5091647;28;20338;-86
2023/03/02 06:51:14;;;;;;;6.93;4.97;;;;;;;5.35;69.67;95215.16;5108808;28;20028;-87
2023/03/02 06:53:40;;;;;;;6.15;4.68;;;;;;;5.38;70.99;95225.28;5092593;28;20115;-87
2023/03/02 06:56:06;;;;;;;5.72;4.00;;;;;;;5.47;71.90;95231.09;5108133;27;20063;-89
2023/03/02 06:58:31;;;;;;;4.50;3.20;;;;;;;5.50;70.10;95225.59;5106601;28;20076;-83
2023/03/02 07:00:56;;;;;;;5.32;4.18;;;;;;;5.60;70.76;95232.94;5087598;28;20031;-84
2023/03/02 07:03:22;;;;;;;4.35;3.55;;;;;;;5.49;69.54;95234.19;5105034;28;20058;-84
2023/03/02 07:05:47;;;;;;;5.32;3.72;;;;;;;5.49;70.46;95226.78;5105102;28;20051;-86
2023/03/02 07:08:13;;;;;;;6.47;4.82;;;;;;;5.52;70.05;95233.41;5106381;28;20351;-86
2023/03/02 07:10:38;;;;;;;6.88;3.85;;;;;;;5.55;70.48;95235.31;5105572;28;20600;-84
2023/03/02 07:13:04;;;;;;;6.35;4.10;;;;;;;5.47;69.07;95231.84;5105094;28;20447;-83
2023/03/02 07:15:29;;;;;;;5.25;4.15;;;;;;;5.62;70.87;95229.03;5108026;28;20032;-83
2023/03/02 07:17:55;;;;;;;5.38;4.10;;;;;;;5.58;69.73;95226.34;5107853;28;20111;-83
2023/03/02 07:20:20;;;;;;;6.80;4.43;;;;;;;5.60;70.44;95227.50;5104868;28;20023;-85
2023/03/02 07:22:45;;;;;;;6.28;4.30;;;;;;;5.60;71.68;95227.50;5105196;28;20027;-85
2023/03/02 07:25:11;;;;;;;4.53;3.30;;;;;;;5.58;69.81;95234.53;5088285;28;20037;-85
2023/03/02 07:27:37;;;;;;;6.25;3.63;;;;;;;5.60;70.65;95224.00;5088261;28;20092;-84
2023/03/02 07:30:04;;;;;;;5.72;3.55;;;;;;;5.58;69.22;95224.41;5104717;28;20058;-84
2023/03/02 07:32:29;;;;;;;6.38;4.10;;;;;;;5.70;69.62;95233.31;5086694;28;20055;-83
2023/03/02 07:34:55;;;;;;;5.32;4.22;;;;;;;5.67;68.97;95234.88;5087974;28;20481;-83
2023/03/02 07:37:20;;;;;;;6.20;4.00;;;;;;;5.75;69.77;95230.16;5104761;28;20128;-83
2023/03/02 07:39:47;;;;;;;5.20;3.63;;;;;;;5.70;68.61;95234.09;5106550;28;20034;-86
2023/03/02 07:42:12;;;;;;;6.95;4.93;;;;;;;5.74;70.65;95239.53;5087552;28;20466;-84
2023/03/02 07:44:38;;;;;;;6.82;4.63;;;;;;;5.74;69.40;95239.53;5087566;28;20048;-84
2023/03/02 07:47:04;;;;;;;8.00;5.20;;;;;;;5.81;70.09;95234.81;5088152;28;20038;-82
2023/03/02 07:49:29;;;;;;;7.90;5.40;;;;;;;5.94;71.50;95234.38;5107267;28;20410;-85
2023/03/02 07:51:55;;;;;;;5.60;4.50;;;;;;;5.92;69.73;95234.78;5105702;28;20093;-84
2023/03/02 07:54:20;;;;;;;7.22;4.65;;;;;;;5.99;70.62;95244.88;5107166;28;20042;-85
2023/03/02 07:56:45;;;;;;;5.05;3.85;;;;;;;5.84;69.10;95236.72;5106680;28;20024;-83
2023/03/02 07:59:12;;;;;;;6.30;4.53;;;;;;;6.01;69.87;95239.78;5106555;28;20052;-85
2023/03/02 08:01:37;;;;;;;8.38;4.65;;;;;;;6.03;68.59;95235.47;5112747;28;20511;-84
2023/03/02 08:04:03;;;;;;;6.65;4.53;;;;;;;6.13;69.37;95229.16;5107089;28;20034;-84
2023/03/02 08:06:29;;;;;;;5.15;3.80;;;;;;;6.08;67.42;95224.16;5105910;28;20035;-82
2023/03/02 08:08:54;;;;;;;7.65;4.15;;;;;;;6.13;69.31;95231.88;5087680;28;20055;-84
2023/03/02 08:11:20;;;;;;;5.13;4.07;;;;;;;6.22;68.60;95236.13;5087121;28;20484;-83
2023/03/02 08:13:45;;;;;;;6.10;3.80;;;;;;;6.25;69.26;95233.38;5087119;28;20458;-71
2023/03/02 08:16:12;;;;;;;6.10;4.00;;;;;;;6.35;69.27;95229.00;5103633;28;20031;-74
2023/03/02 08:18:38;;;;;;;5.50;4.38;;;;;;;6.37;67.87;95232.91;5105169;28;20077;-74
2023/03/02 08:21:10;;;;;;;5.50;4.03;;;;;;;6.33;67.69;95231.38;5104457;28;20452;-72
2023/03/02 08:23:36;;;;;;;5.35;4.20;;;;;;;6.33;67.39;95221.22;5103926;28;20031;-75
2023/03/02 08:26:01;;;;;;;6.53;4.05;;;;;;;6.37;67.69;95226.66;5105299;28;20034;-76
2023/03/02 08:28:27;;;;;;;5.55;3.92;;;;;;;6.37;67.52;95226.66;5105125;28;20110;-76
2023/03/02 08:30:57;;;;;;;6.68;3.95;;;;;;;6.52;69.39;95216.38;5105207;28;20050;-76
2023/03/02 08:33:22;;;;;;;4.50;3.63;;;;;;;6.62;67.20;95213.56;5105130;28;20093;-73
2023/03/02 08:35:56;;;;;;;6.97;5.13;;;;;;;6.81;67.75;95217.66;5104819;28;20027;-74
2023/03/02 08:38:22;;;;;;;5.45;4.25;;;;;;;6.89;66.47;95223.84;5103240;28;20034;-73
2023/03/02 08:40:48;;;;;;;6.63;4.60;;;;;;;6.99;65.81;95225.69;5103219;28;20051;-73
2023/03/02 08:43:13;;;;;;;7.05;4.70;;;;;;;7.02;65.39;95221.38;5103050;28;20085;-72
2023/03/02 08:45:38;;;;;;;7.40;4.90;;;;;;;7.07;64.76;95226.41;5104856;28;20019;-72
2023/03/02 08:48:04;;;;;;;5.55;4.80;;;;;;;7.12;65.45;95232.19;5105340;28;20032;-72
2023/03/02 08:50:30;;;;;;;8.32;4.15;;;;;;;6.97;64.33;95219.84;5103192;28;20040;-74
2023/03/02 08:52:55;;;;;;;6.28;4.75;;;;;;;6.87;65.31;95220.72;5104822;28;20546;-73
2023/03/02 08:55:21;;;;;;;5.72;4.28;;;;;;;6.88;64.91;95211.34;5104812;28;20047;-73
2023/03/02 08:57:46;;;;;;;5.53;4.45;;;;;;;6.98;66.33;95220.63;5104737;28;20104;-74
2023/03/02 09:00:13;;;;;;;6.05;4.43;;;;;;;7.01;65.51;95215.13;5086259;28;20131;-73
2023/03/02 09:02:40;;;;;;;6.85;4.90;;;;;;;7.12;65.84;95215.78;5102761;28;20035;-73
2023/03/02 09:05:05;;;;;;;7.22;5.13;;;;;;;7.17;65.00;95207.16;5101488;28;20473;-73
2023/03/02 09:07:30;;;;;;;7.63;5.25;;;;;;;7.28;65.15;95217.16;5102712;28;20043;-72
2023/03/02 09:09:56;;;;;;;6.68;5.30;;;;;;;7.07;64.18;95213.50;5086420;28;20031;-73
2023/03/02 09:12:21;;;;;;;7.07;5.40;;;;;;;7.08;64.55;95209.59;5104253;28;20030;-74
2023/03/02 09:14:47;;;;;;;5.72;4.57;;;;;;;7.12;64.57;95204.09;5086106;28;20493;-74
2023/03/02 09:17:14;;;;;;;7.20;4.90;;;;;;;7.16;65.20;95208.31;5086096;28;20039;-73
2023/03/02 09:19:40;;;;;;;7.88;4.85;;;;;;;7.29;65.41;95213.28;5102932;28;20050;-77
2023/03/02 09:22:09;;;;;;;7.18;4.70;;;;;;;7.35;64.72;95208.91;5086248;28;20028;-74
2023/03/02 09:24:35;;;;;;;6.32;4.72;;;;;;;7.40;64.78;95203.75;5103137;28;20030;-75
2023/03/02 09:27:01;;;;;;;7.03;5.20;;;;;;;7.53;63.22;95205.94;5107564;28;20020;-74
2023/03/02 09:29:27;;;;;;;6.35;5.35;;;;;;;7.71;63.09;95211.94;5103142;28;20062;-75
2023/03/02 09:31:52;;;;;;;6.93;4.93;;;;;;;7.95;63.45;95199.09;5104266;28;20055;-75
2023/03/02 09:34:18;;;;;;;6.28;4.88;;;;;;;8.09;61.97;95204.38;5103015;28;20574;-74
2023/03/02 09:36:43;;;;;;;6.07;4.30;;;;;;;8.24;61.71;95199.44;5102821;28;20028;-75
2023/03/02 09:39:11;;;;;;;5.95;4.10;;;;;;;8.41;61.59;95197.66;5104012;28;20034;-74
2023/03/02 09:41:42;;;;;;;6.25;4.50;;;;;;;8.50;61.28;95197.91;5103949;28;20067;-76
2023/03/02 09:44:33;;;;;;;5.85;4.55;;;;;;;8.62;60.50;95193.78;5104757;28;20128;-76
2023/03/02 09:47:03;;;;;;;6.13;4.80;;;;;;;8.49;59.53;95194.38;5103159;28;20031;-77
2023/03/02 09:49:34;;;;;;;6.60;5.25;;;;;;;8.51;60.45;95202.19;5069361;28;20036;-75
2023/03/02 09:52:20;;;;;;;5.53;4.95;;;;;;;8.48;60.64;95201.03;5104646;28;20035;-74
2023/03/02 09:54:46;;;;;;;6.68;5.70;;;;;;;8.53;60.53;95199.78;5103685;28;20027;-76
2023/03/02 09:57:23;;;;;;;6.18;4.88;;;;;;;8.13;60.50;95191.41;5089183;28;20080;-77
2023/03/02 10:00:05;;;;;;;6.25;5.03;;;;;;;8.03;60.63;95203.31;5105479;28;20104;-76
2023/03/02 10:02:55;;;;;;;8.00;5.95;;;;;;;8.08;61.45;95197.34;5106094;28;20119;-80
2023/03/02 10:05:24;;;;;;;8.05;6.38;;;;;;;8.19;61.31;95199.91;5089459;28;20024;-78
2023/03/02 10:07:49;;;;;;;7.65;6.05;;;;;;;8.27;61.44;95209.59;5089081;28;20027;-81
2023/03/02 10:10:40;;;;;;;6.95;6.18;;;;;;;8.21;61.38;95200.28;5106561;28;20024;-78
2023/03/02 10:13:26;;;;;;;8.13;6.47;;;;;;;8.23;61.79;95204.16;5107788;28;20102;-80
2023/03/02 10:16:10;;;;;;;7.30;6.35;;;;;;;8.14;61.77;95194.91;5105895;28;20028;-81
2023/03/02 10:18:44;;;;;;;9.25;6.05;;;;;;;8.22;61.32;95205.34;5107435;28;20035;-78
2023/03/02 10:21:12;;;;;;;7.90;5.90;;;;;;;8.24;61.21;95208.44;5107950;28;20111;-74
2023/03/02 10:24:06;;;;;;;10.95;6.53;;;;;;;8.34;61.20;95205.97;5088844;28;20064;-75
2023/03/02 10:26:44;;;;;;;8.40;6.32;;;;;;;8.29;60.28;95198.97;5091189;27;20055;-73
2023/03/02 10:29:09;;;;;;;8.18;6.30;;;;;;;8.28;60.91;95199.41;5105488;28;20126;-75
2023/03/02 10:31:38;;;;;;;8.57;6.03;;;;;;;8.22;60.34;95197.13;5108654;27;20480;-73
2023/03/02 10:34:03;;;;;;;7.00;5.07;;;;;;;8.20;60.12;95190.50;5105982;28;20023;-75
2023/03/02 10:36:33;;;;;;;6.00;5.13;;;;;;;8.18;60.08;95193.66;5105768;28;20054;-75
2023/03/02 10:38:59;;;;;;;6.38;5.03;;;;;;;8.20;59.71;95193.25;5105638;28;20024;-74
2023/03/02 10:41:35;;;;;;;7.57;5.57;;;;;;;8.14;59.95;95195.72;5088365;28;20046;-74
2023/03/02 10:44:20;;;;;;;6.07;5.15;;;;;;;8.23;59.91;95193.19;5105204;28;20042;-74
2023/03/02 10:46:45;;;;;;;6.45;4.78;;;;;;;8.24;60.10;95189.25;5105243;28;20019;-74
2023/03/02 10:49:30;;;;;;;6.47;4.60;;;;;;;8.25;59.70;95187.28;5105734;28;20023;-75
2023/03/02 10:52:11;;;;;;;5.75;4.13;;;;;;;8.18;58.95;95187.41;5105033;28;20028;-75
2023/03/02 10:54:36;;;;;;;5.45;4.18;;;;;;;8.11;59.38;95185.56;5104989;28;20023;-74
2023/03/02 10:57:07;;;;;;;5.95;4.70;;;;;;;8.14;59.53;95181.22;5087963;28;20024;-79
2023/03/02 10:59:51;;;;;;;6.13;4.60;;;;;;;8.13;60.10;95174.19;5104835;28;20052;-73
2023/03/02 11:02:22;;;;;;;;;;;;;;;8.19;59.47;95186.22;5106735;28;20027;-73
2023/03/02 11:04:58;;;;;;;6.10;3.90;;;;;;;7.99;59.06;95167.75;5104896;28;19916;-75
2023/03/02 11:07:26;;;;;;;6.13;4.78;;;;;;;7.98;58.85;95174.44;5104832;28;20075;-76
2023/03/02 11:09:59;;;;;;;5.78;4.18;;;;;;;8.01;59.92;95163.81;5104581;28;20496;-74
2023/03/02 11:12:24;;;;;;;8.15;4.82;;;;;;;7.99;60.10;95167.75;5106478;28;20047;-75
2023/03/02 11:15:01;;;;;;;8.00;5.38;;;;;;;8.09;59.79;95168.03;5088032;28;20466;-75
2023/03/02 11:17:33;;;;;;;6.15;4.53;;;;;;;7.94;59.38;95165.47;5106313;28;20108;-74
2023/03/02 11:19:59;;;;;;;6.28;4.15;;;;;;;7.92;59.40;95156.16;5104555;28;20111;-74
2023/03/02 11:22:50;;;;;;;9.98;5.78;;;;;;;7.99;60.01;95151.31;5104476;28;20114;-74
2023/03/02 11:25:22;;;;;;;8.18;4.50;;;;;;;8.04;60.44;95152.06;5105766;28;20030;-76
2023/03/02 11:27:53;;;;;;;6.03;4.28;;;;;;;7.96;59.30;95154.09;5104639;28;20019;-75
2023/03/02 11:30:21;;;;;;;6.90;3.88;;;;;;;7.79;59.27;95152.41;5104518;28;20553;-74
2023/03/02 11:32:52;;;;;;;5.80;3.45;;;;;;;7.56;59.74;95147.66;5086930;28;20461;-74
2023/03/02 11:35:21;;;;;;;6.18;4.35;;;;;;;7.48;60.29;95155.19;5104918;28;20039;-75
2023/03/02 11:37:53;;;;;;;5.70;3.97;;;;;;;7.36;61.00;95142.06;5089911;28;20051;-74
2023/03/02 11:40:55;;;;;;;4.80;3.33;;;;;;;7.29;60.43;95140.22;5105708;28;20131;-74
2023/03/02 11:43:20;;;;;;;5.68;3.97;;;;;;;7.31;61.37;95139.78;5062562;28;20064;-75
2023/03/02 11:45:55;;;;;;;5.57;3.28;;;;;;;7.29;61.01;95147.63;5062653;28;20129;-75